Time;durP1;ratioP1;P1;durP2;ratioP2;P2;SDS_P1;SDS_P2;PMS_P1;PMS_P2;Temp;Humidity;BMP_temperature;BMP_pressure;BME280_temperature;BME280_humidity;BME280_pressure;Samples;Min_cycle;Max_cycle;Signal;HPM_P1;HPM_P2
2023/04/24 00:02:20;;;;;;;2.55;1.55;;;10.20;99.90;;;;;;5092521;28;20067;-55
2023/04/24 00:04:46;;;;;;;7.45;2.45;;;10.20;99.90;;;;;;5094936;28;20040;-56
2023/04/24 00:07:14;;;;;;;4.55;2.28;;;10.20;99.90;;;;;;5090538;28;20101;-53
2023/04/24 00:09:40;;;;;;;3.33;2.17;;;10.10;99.90;;;;;;5090545;28;20040;-52
2023/04/24 00:12:08;;;;;;;3.10;2.03;;;10.10;99.90;;;;;;5102366;28;20123;-53
2023/04/24 00:14:35;;;;;;;4.88;2.83;;;10.10;99.90;;;;;;5096435;28;20070;-56
2023/04/24 00:17:02;;;;;;;4.70;2.30;;;10.10;99.90;;;;;;5093737;28;20044;-55
2023/04/24 00:19:29;;;;;;;6.18;3.10;;;10.10;99.90;;;;;;5090394;28;20040;-53
2023/04/24 00:21:56;;;;;;;3.13;2.47;;;10.10;99.90;;;;;;5089801;28;20036;-52
2023/04/24 00:24:22;;;;;;;2.90;2.15;;;10.10;99.90;;;;;;5093470;28;20119;-51
2023/04/24 00:26:49;;;;;;;3.05;2.05;;;10.10;99.90;;;;;;5096204;28;20036;-55
2023/04/24 00:29:16;;;;;;;3.65;2.05;;;10.10;99.90;;;;;;5082552;28;20059;-55
2023/04/24 00:31:42;;;;;;;4.60;1.80;;;10.10;99.90;;;;;;5104072;28;20389;-53
2023/04/24 00:34:11;;;;;;;6.13;1.50;;;10.10;99.90;;;;;;5114587;28;20044;-52
2023/04/24 00:36:38;;;;;;;2.22;1.60;;;10.10;99.90;;;;;;5114897;28;20062;-55
2023/04/24 00:39:05;;;;;;;7.85;1.83;;;10.10;99.90;;;;;;5080521;28;20048;-52
2023/04/24 00:41:32;;;;;;;4.32;1.40;;;10.10;99.90;;;;;;5086527;28;20052;-51
2023/04/24 00:43:58;;;;;;;1.30;1.20;;;10.10;99.90;;;;;;5100865;28;20036;-54
2023/04/24 00:46:25;;;;;;;3.38;1.80;;;10.10;99.90;;;;;;5075550;28;20042;-54
2023/04/24 00:48:52;;;;;;;3.20;1.52;;;10.10;99.90;;;;;;5093253;28;20042;-56
2023/04/24 00:51:19;;;;;;;4.38;1.73;;;10.10;99.90;;;;;;5078926;28;20092;-54
2023/04/24 00:53:46;;;;;;;3.58;1.30;;;10.10;99.90;;;;;;5106465;28;20060;-55
2023/04/24 00:56:13;;;;;;;3.13;1.58;;;10.20;99.90;;;;;;5076034;28;20045;-53
2023/04/24 00:58:41;;;;;;;3.53;1.50;;;10.20;99.90;;;;;;5093702;28;20044;-56
2023/04/24 01:01:09;;;;;;;2.03;1.00;;;10.20;99.90;;;;;;5111309;28;20104;-54
2023/04/24 01:03:36;;;;;;;4.45;1.70;;;10.20;99.90;;;;;;5089650;28;20032;-56
2023/04/24 01:06:05;;;;;;;8.07;2.85;;;10.10;99.90;;;;;;5080070;28;20071;-51
2023/04/24 01:08:34;;;;;;;3.67;1.55;;;10.10;99.90;;;;;;5085209;28;20068;-53
2023/04/24 01:11:03;;;;;;;4.50;1.73;;;10.00;99.90;;;;;;5091460;28;20044;-52
2023/04/24 01:13:31;;;;;;;4.05;1.70;;;10.00;99.90;;;;;;5095104;28;20123;-55
2023/04/24 01:15:58;;;;;;;4.25;2.25;;;10.00;99.90;;;;;;5102812;28;20096;-52
2023/04/24 01:18:27;;;;;;;8.75;2.08;;;10.00;99.90;;;;;;5092689;28;20067;-53
2023/04/24 01:20:58;;;;;;;3.13;1.92;;;9.90;99.90;;;;;;5092967;28;20109;-53
2023/04/24 01:23:25;;;;;;;3.20;2.28;;;9.90;99.90;;;;;;5093484;28;20065;-52
2023/04/24 01:25:52;;;;;;;2.38;1.83;;;9.90;99.90;;;;;;5101593;28;20085;-55
2023/04/24 01:28:19;;;;;;;2.50;1.90;;;10.00;99.90;;;;;;5092745;28;20040;-54
2023/04/24 01:30:46;;;;;;;1.42;1.25;;;10.00;99.90;;;;;;5075028;28;20036;-54
2023/04/24 01:33:13;;;;;;;1.30;1.17;;;10.10;99.90;;;;;;5093578;28;20397;-54
2023/04/24 01:35:40;;;;;;;3.38;1.02;;;10.10;99.90;;;;;;5103613;28;20380;-52
2023/04/24 01:38:07;;;;;;;4.50;1.60;;;10.10;99.90;;;;;;5078306;28;20531;-56
2023/04/24 01:40:35;;;;;;;2.00;0.90;;;10.10;99.90;;;;;;5112893;28;20036;-51
2023/04/24 01:43:02;;;;;;;2.33;0.75;;;10.10;99.90;;;;;;5108538;28;20043;-52
2023/04/24 01:45:29;;;;;;;1.35;1.20;;;10.10;99.90;;;;;;5094007;28;20032;-55
2023/04/24 01:47:56;;;;;;;3.13;1.42;;;10.00;99.90;;;;;;5077660;28;20446;-52
2023/04/24 01:50:23;;;;;;;;;;;10.00;99.90;;;;;;5078200;28;20051;-55
2023/04/24 01:52:50;;;;;;;1.80;1.20;;;10.00;99.90;;;;;;5105119;28;19920;-51
2023/04/24 01:55:17;;;;;;;2.25;1.00;;;10.00;99.90;;;;;;5092447;28;20101;-56
2023/04/24 01:57:44;;;;;;;1.50;1.00;;;10.00;99.90;;;;;;5074806;28;20047;-51
2023/04/24 02:00:12;;;;;;;1.40;1.10;;;10.00;99.90;;;;;;5074952;28;20074;-54
2023/04/24 02:02:41;;;;;;;5.63;1.50;;;10.00;99.90;;;;;;5099639;28;20047;-52
2023/04/24 02:05:13;;;;;;;3.38;1.33;;;10.00;99.90;;;;;;5082856;28;20086;-53
2023/04/24 02:07:40;;;;;;;1.50;1.10;;;10.00;99.90;;;;;;5080174;28;20047;-54
2023/04/24 02:10:07;;;;;;;2.95;1.45;;;10.00;99.90;;;;;;5108460;28;20036;-52
2023/04/24 02:12:34;;;;;;;1.80;0.95;;;10.00;99.90;;;;;;5093925;28;20051;-52
2023/04/24 02:15:01;;;;;;;2.67;1.05;;;9.90;99.90;;;;;;5111624;28;20492;-56
2023/04/24 02:17:28;;;;;;;1.13;1.00;;;9.90;99.90;;;;;;5098970;28;20101;-55
2023/04/24 02:19:56;;;;;;;2.88;0.90;;;9.90;99.90;;;;;;5091856;28;20618;-55
2023/04/24 02:22:23;;;;;;;1.58;1.15;;;9.90;99.90;;;;;;5092195;28;20089;-54
2023/04/24 02:24:49;;;;;;;0.57;0.55;;;9.80;99.90;;;;;;5099352;28;20114;-54
2023/04/24 02:27:16;;;;;;;0.75;0.73;;;9.80;99.90;;;;;;5098578;28;20093;-54
2023/04/24 02:29:43;;;;;;;1.95;0.90;;;9.80;99.90;;;;;;5091795;28;20032;-53
2023/04/24 02:32:11;;;;;;;;;;;9.80;99.90;;;;;;5092320;28;20082;-54
2023/04/24 02:34:38;;;;;;;1.40;0.75;;;9.80;99.90;;;;;;5092231;28;19924;-55
2023/04/24 02:37:05;;;;;;;0.50;0.40;;;9.80;99.90;;;;;;5098303;28;20052;-52
2023/04/24 02:39:32;;;;;;;5.57;0.70;;;9.90;99.90;;;;;;5091530;28;20093;-51
2023/04/24 02:41:58;;;;;;;5.25;0.82;;;9.80;99.90;;;;;;5072811;28;20043;-54
2023/04/24 02:44:25;;;;;;;2.20;0.60;;;10.20;99.90;;;;;;5083297;28;20044;-55
2023/04/24 02:46:52;;;;;;;2.05;0.80;;;9.70;99.90;;;;;;5089309;28;20052;-55
2023/04/24 02:49:18;;;;;;;3.90;0.70;;;9.60;99.90;;;;;;5089921;28;20450;-52
2023/04/24 02:51:45;;;;;;;1.63;0.98;;;9.60;99.90;;;;;;5073372;28;20040;-55
2023/04/24 02:54:12;;;;;;;0.80;0.75;;;9.60;99.90;;;;;;5081517;28;20040;-52
2023/04/24 02:56:39;;;;;;;1.85;0.70;;;9.60;99.90;;;;;;5107110;28;20080;-53
2023/04/24 02:59:07;;;;;;;1.45;0.77;;;9.60;99.90;;;;;;5090994;28;20105;-53
2023/04/24 03:01:35;;;;;;;2.15;1.00;;;9.60;99.90;;;;;;5077756;28;20606;-55
2023/04/24 03:04:02;;;;;;;;;;;9.60;99.90;;;;;;5073776;28;20047;-52
2023/04/24 03:06:31;;;;;;;3.03;1.10;;;9.70;99.90;;;;;;5089924;28;19927;-53
2023/04/24 03:08:57;;;;;;;1.85;1.02;;;9.70;99.90;;;;;;5091420;28;20046;-54
2023/04/24 03:11:25;;;;;;;6.65;0.88;;;9.70;99.90;;;;;;5093440;28;20127;-53
2023/04/24 03:13:51;;;;;;;1.52;1.10;;;9.70;99.90;;;;;;5092169;28;20047;-54
2023/04/24 03:16:19;;;;;;;1.73;0.82;;;9.70;99.90;;;;;;5099389;28;20081;-57
2023/04/24 03:18:46;;;;;;;1.15;0.80;;;9.70;99.90;;;;;;5090409;28;20064;-56
2023/04/24 03:21:13;;;;;;;3.83;0.80;;;9.60;99.90;;;;;;5090023;28;20054;-53
2023/04/24 03:23:44;;;;;;;2.85;1.13;;;9.60;99.90;;;;;;5088893;28;20044;-54
2023/04/24 03:26:11;;;;;;;2.15;1.27;;;9.60;99.90;;;;;;5100929;28;20117;-51
2023/04/24 03:28:48;;;;;;;2.45;0.90;;;9.60;99.90;;;;;;5080255;28;20653;-55
2023/04/24 03:31:16;;;;;;;1.00;0.88;;;9.70;99.90;;;;;;5082027;28;20523;-51
2023/04/24 03:33:43;;;;;;;1.10;1.00;;;9.70;99.90;;;;;;5072581;28;20408;-53
2023/04/24 03:36:10;;;;;;;1.73;1.13;;;9.70;99.90;;;;;;5079855;28;20603;-57
2023/04/24 03:38:39;;;;;;;1.08;0.98;;;9.70;99.90;;;;;;5079213;28;20063;-55
2023/04/24 03:41:38;;;;;;;0.98;0.85;;;9.70;99.90;;;;;;5086841;28;20063;-55
2023/04/24 03:44:12;;;;;;;3.00;0.80;;;9.70;99.90;;;;;;5099131;28;20052;-54
2023/04/24 03:46:40;;;;;;;1.25;0.90;;;9.70;99.90;;;;;;5092671;28;20108;-57
2023/04/24 03:49:06;;;;;;;2.55;0.80;;;9.70;99.90;;;;;;5090189;28;20051;-52
2023/04/24 03:51:37;;;;;;;0.82;0.70;;;9.70;99.90;;;;;;5092623;28;20059;-52
2023/04/24 03:54:20;;;;;;;1.40;0.80;;;9.60;99.90;;;;;;5093149;28;20050;-51
2023/04/24 03:56:48;;;;;;;2.58;0.70;;;9.60;99.90;;;;;;5104775;28;20048;-53
2023/04/24 03:59:15;;;;;;;0.77;0.75;;;9.50;99.90;;;;;;5081809;28;20059;-52
2023/04/24 04:01:47;;;;;;;0.52;0.52;;;9.50;99.90;;;;;;5076972;28;20503;-51
2023/04/24 04:04:15;;;;;;;1.00;0.50;;;9.40;99.90;;;;;;5093342;28;20090;-52
2023/04/24 04:06:44;;;;;;;1.58;0.60;;;9.40;99.90;;;;;;5099559;28;20036;-51
2023/04/24 04:09:39;;;;;;;3.35;0.63;;;9.30;99.90;;;;;;5093376;22;20454;-49
2023/04/24 04:12:06;;;;;;;4.30;1.00;;;9.40;99.90;;;;;;5052986;28;20066;-49
2023/04/24 04:14:34;;;;;;;2.88;0.32;;;9.20;99.90;;;;;;5053532;28;20072;-48
2023/04/24 04:17:01;;;;;;;0.52;0.30;;;9.10;99.90;;;;;;5065079;28;20040;-49
2023/04/24 04:19:28;;;;;;;0.98;0.63;;;9.10;99.90;;;;;;5055655;28;20119;-49
2023/04/24 04:21:56;;;;;;;2.30;0.88;;;9.10;99.90;;;;;;5077529;28;20060;-49
2023/04/24 04:24:37;;;;;;;2.08;1.00;;;9.00;99.90;;;;;;5074752;28;20516;-49
2023/04/24 04:27:05;;;;;;;2.70;0.65;;;9.00;99.90;;;;;;5070628;28;20053;-48
2023/04/24 04:29:39;;;;;;;1.55;0.55;;;9.00;99.90;;;;;;5082792;28;20094;-48
2023/04/24 04:32:09;;;;;;;1.85;0.30;;;9.00;99.90;;;;;;5057319;28;20049;-49
2023/04/24 04:34:37;;;;;;;;;;;8.90;99.90;;;;;;5089145;28;20041;-49
2023/04/24 04:37:06;;;;;;;0.63;0.63;;;9.00;99.90;;;;;;5055923;28;20484;-50
2023/04/24 04:40:00;;;;;;;0.30;0.30;;;8.90;99.90;;;;;;5047474;28;20060;-48
2023/04/24 04:42:33;;;;;;;2.85;1.30;;;9.00;99.90;;;;;;5050872;28;20055;-49
2023/04/24 04:45:00;;;;;;;1.25;0.85;;;9.00;99.90;;;;;;5075688;28;20037;-49
2023/04/24 04:47:38;;;;;;;1.67;0.73;;;9.00;99.90;;;;;;5066575;28;20074;-50
2023/04/24 04:50:05;;;;;;;1.23;0.95;;;9.00;99.90;;;;;;5071937;28;20574;-50
2023/04/24 04:52:32;;;;;;;6.47;1.15;;;9.00;99.90;;;;;;5072370;28;20414;-50
2023/04/24 04:55:13;;;;;;;0.88;0.60;;;9.00;99.90;;;;;;5070144;28;20044;-49
2023/04/24 04:58:00;;;;;;;3.67;1.30;;;8.90;99.90;;;;;;5071609;28;20127;-51
2023/04/24 05:00:28;;;;;;;1.00;0.70;;;9.00;99.90;;;;;;5086246;28;20051;-51
2023/04/24 05:02:55;;;;;;;1.85;1.00;;;9.00;99.90;;;;;;5066022;28;20040;-53
2023/04/24 05:05:40;;;;;;;1.85;1.20;;;9.00;99.90;;;;;;5087756;28;20044;-49
2023/04/24 05:08:10;;;;;;;0.88;0.50;;;9.00;99.90;;;;;;5070649;28;20114;-47
2023/04/24 05:10:52;;;;;;;1.65;0.60;;;9.00;99.90;;;;;;5075553;28;20041;-48
2023/04/24 05:13:19;;;;;;;2.30;0.82;;;9.00;99.90;;;;;;5073394;28;20098;-49
2023/04/24 05:16:03;;;;;;;1.40;0.40;;;9.00;99.90;;;;;;5088905;28;20068;-49
2023/04/24 05:18:30;;;;;;;1.70;0.80;;;8.90;99.90;;;;;;5077338;28;20052;-49
2023/04/24 05:20:57;;;;;;;1.08;0.70;;;8.90;99.90;;;;;;5088491;28;20161;-48
2023/04/24 05:24:03;;;;;;;1.35;0.40;;;8.90;99.90;;;;;;5088652;28;20447;-46
2023/04/24 05:27:05;;;;;;;2.25;0.68;;;8.90;99.90;;;;;;5077371;28;20045;-49
2023/04/24 05:29:37;;;;;;;1.38;0.85;;;9.00;99.90;;;;;;5056110;28;20408;-49
2023/04/24 05:32:05;;;;;;;1.20;0.80;;;9.00;99.90;;;;;;5088679;28;20051;-50
2023/04/24 05:34:32;;;;;;;1.88;0.80;;;8.90;99.90;;;;;;5072611;28;20076;-50
2023/04/24 05:36:58;;;;;;;1.45;0.65;;;9.00;99.90;;;;;;5072164;28;20044;-50
2023/04/24 05:39:25;;;;;;;0.82;0.60;;;9.00;99.90;;;;;;5085359;28;20050;-49
2023/04/24 05:41:53;;;;;;;1.15;0.80;;;9.00;99.90;;;;;;5088685;28;20059;-52
2023/04/24 05:44:20;;;;;;;1.20;0.82;;;9.10;99.90;;;;;;5071255;28;20535;-49
2023/04/24 05:46:47;;;;;;;0.90;0.77;;;9.10;99.90;;;;;;5071443;28;20036;-49
2023/04/24 05:49:15;;;;;;;2.40;1.35;;;9.00;99.90;;;;;;5067911;28;20481;-49
2023/04/24 05:51:42;;;;;;;1.40;0.82;;;9.00;99.90;;;;;;5062218;28;20036;-49
2023/04/24 05:54:11;;;;;;;2.47;1.00;;;9.00;99.90;;;;;;5079241;28;20090;-50
2023/04/24 05:56:39;;;;;;;1.60;0.90;;;9.00;99.90;;;;;;5078491;28;20044;-49
2023/04/24 05:59:11;;;;;;;2.13;0.90;;;9.10;99.90;;;;;;5087657;28;20501;-49
2023/04/24 06:01:38;;;;;;;1.30;1.02;;;9.10;99.90;;;;;;5069146;28;20056;-48
2023/04/24 06:04:13;;;;;;;2.38;1.42;;;9.20;99.90;;;;;;5070132;28;20067;-49
2023/04/24 06:06:40;;;;;;;2.00;0.85;;;9.20;99.90;;;;;;5062826;28;20033;-48
2023/04/24 06:09:07;;;;;;;1.77;0.55;;;9.30;99.90;;;;;;5086731;28;20198;-48
2023/04/24 06:11:34;;;;;;;0.93;0.60;;;9.30;99.90;;;;;;5087626;28;20058;-49
2023/04/24 06:14:02;;;;;;;1.35;0.68;;;9.40;99.90;;;;;;5075631;28;20048;-49
2023/04/24 06:16:57;;;;;;;1.35;0.80;;;9.40;99.90;;;;;;5071953;28;20082;-48
2023/04/24 06:19:34;;;;;;;1.90;0.60;;;9.50;99.90;;;;;;5086908;28;20048;-48
2023/04/24 06:22:01;;;;;;;3.58;1.15;;;9.50;99.90;;;;;;5071688;28;20045;-48
2023/04/24 06:24:28;;;;;;;2.33;0.80;;;9.60;99.90;;;;;;5071978;28;20409;-48
2023/04/24 06:26:57;;;;;;;3.92;1.23;;;9.70;99.90;;;;;;5060241;28;20086;-48
2023/04/24 06:29:23;;;;;;;4.25;0.95;;;9.70;99.90;;;;;;5057206;28;20082;-49
2023/04/24 06:31:50;;;;;;;0.73;0.73;;;9.70;99.90;;;;;;5058747;28;20075;-48
2023/04/24 06:34:17;;;;;;;3.60;0.98;;;9.80;99.90;;;;;;5055277;28;20036;-48
2023/04/24 06:36:44;;;;;;;2.80;1.20;;;9.90;99.90;;;;;;5071163;28;20057;-48
2023/04/24 06:39:10;;;;;;;3.80;0.82;;;10.10;99.90;;;;;;5069743;28;20041;-49
2023/04/24 06:41:37;;;;;;;3.03;1.00;;;10.20;99.90;;;;;;5055772;28;20099;-49
2023/04/24 06:44:04;;;;;;;1.10;0.88;;;10.30;99.90;;;;;;5069733;28;20068;-49
2023/04/24 06:46:31;;;;;;;0.60;0.40;;;10.40;99.90;;;;;;5071129;28;20306;-48
2023/04/24 06:48:57;;;;;;;2.88;0.88;;;10.40;99.90;;;;;;5069479;28;20127;-50
2023/04/24 06:51:25;;;;;;;1.67;0.80;;;10.40;99.90;;;;;;5069185;28;20067;-49
2023/04/24 06:53:53;;;;;;;1.70;0.82;;;10.40;99.90;;;;;;5072058;28;20119;-49
2023/04/24 06:56:20;;;;;;;1.75;0.73;;;10.40;99.90;;;;;;5071340;28;20048;-49
2023/04/24 06:58:47;;;;;;;5.80;0.90;;;10.40;99.90;;;;;;5071079;28;20489;-49
2023/04/24 07:01:14;;;;;;;1.55;0.80;;;10.40;99.90;;;;;;5053702;28;20571;-48
2023/04/24 07:03:41;;;;;;;;;;;10.30;99.90;;;;;;5066840;28;20105;-49
2023/04/24 07:06:12;;;;;;;2.35;0.90;;;10.30;99.90;;;;;;5052026;28;19921;-49
2023/04/24 07:08:39;;;;;;;1.20;0.73;;;10.20;99.90;;;;;;5050862;28;20094;-49
2023/04/24 07:11:06;;;;;;;2.13;1.20;;;10.10;99.90;;;;;;5050867;28;20049;-49
2023/04/24 07:13:35;;;;;;;4.57;1.52;;;10.10;99.90;;;;;;5063339;28;20072;-49
2023/04/24 07:16:02;;;;;;;2.97;1.67;;;10.10;99.90;;;;;;5061682;28;20040;-48
2023/04/24 07:18:28;;;;;;;3.08;1.00;;;10.10;99.90;;;;;;5055880;28;20074;-49
2023/04/24 07:20:56;;;;;;;0.68;0.60;;;10.00;99.90;;;;;;5071300;28;20071;-49
2023/04/24 07:23:23;;;;;;;2.25;0.70;;;10.00;99.90;;;;;;5070246;28;20045;-49
2023/04/24 07:25:50;;;;;;;2.08;0.70;;;10.00;99.90;;;;;;5071291;28;20090;-48
2023/04/24 07:28:17;;;;;;;2.42;0.77;;;9.80;99.90;;;;;;5057783;28;20041;-49
2023/04/24 07:30:44;;;;;;;0.93;0.68;;;10.00;99.90;;;;;;5065485;28;20440;-48
2023/04/24 07:33:12;;;;;;;1.15;0.75;;;10.00;99.90;;;;;;5071144;28;20045;-48
2023/04/24 07:35:39;;;;;;;3.75;1.88;;;10.00;99.90;;;;;;5070827;28;20044;-48
2023/04/24 07:38:06;;;;;;;3.67;1.38;;;10.10;99.90;;;;;;5067357;28;20049;-48
2023/04/24 07:40:33;;;;;;;1.02;0.70;;;10.10;99.90;;;;;;5058034;28;20079;-48
2023/04/24 07:43:00;;;;;;;0.60;0.55;;;10.00;99.90;;;;;;5063833;28;20551;-48
2023/04/24 07:45:27;;;;;;;2.00;0.73;;;10.10;99.90;;;;;;5063901;28;20108;-49
2023/04/24 07:47:54;;;;;;;0.50;0.40;;;10.00;99.90;;;;;;5065085;28;20064;-49
2023/04/24 07:50:21;;;;;;;1.77;0.50;;;10.10;99.90;;;;;;5055842;28;20098;-48
2023/04/24 07:52:48;;;;;;;;;;;10.20;99.90;;;;;;5050613;28;20485;-48
2023/04/24 07:55:15;;;;;;;1.70;0.73;;;10.20;99.90;;;;;;5050402;28;19952;-48
2023/04/24 07:57:42;;;;;;;0.65;0.50;;;10.00;99.90;;;;;;5051046;28;20048;-48
2023/04/24 08:00:09;;;;;;;2.33;1.10;;;9.90;99.90;;;;;;5050207;28;20067;-48
2023/04/24 08:02:39;;;;;;;1.67;0.52;;;10.00;99.90;;;;;;5070021;28;20124;-50
2023/04/24 08:05:07;;;;;;;0.95;0.47;;;9.90;99.90;;;;;;5070286;28;20051;-48
2023/04/24 08:07:35;;;;;;;2.58;1.00;;;9.80;99.90;;;;;;5068478;28;20037;-49
2023/04/24 08:10:02;;;;;;;0.65;0.50;;;9.80;99.90;;;;;;5070352;28;20551;-48
2023/04/24 08:12:29;;;;;;;3.60;0.90;;;9.80;99.90;;;;;;5069888;28;20528;-48
2023/04/24 08:14:56;;;;;;;13.80;2.17;;;9.90;99.90;;;;;;5070617;28;20110;-49
2023/04/24 08:17:23;;;;;;;7.00;1.80;;;10.00;99.90;;;;;;5057928;28;20120;-48
2023/04/24 08:19:51;;;;;;;0.88;0.70;;;10.10;99.90;;;;;;5066791;28;20048;-48
2023/04/24 08:22:17;;;;;;;4.55;2.00;;;10.00;99.90;;;;;;5070406;28;20119;-49
2023/04/24 08:24:44;;;;;;;1.50;0.90;;;10.20;99.90;;;;;;5070665;28;20135;-48
2023/04/24 08:27:11;;;;;;;1.60;0.68;;;10.20;99.90;;;;;;5066505;28;20041;-49
2023/04/24 08:29:37;;;;;;;3.13;0.50;;;10.10;99.90;;;;;;5069843;28;20036;-49
2023/04/24 08:32:04;;;;;;;0.50;0.50;;;10.00;99.90;;;;;;5051045;28;20106;-49
2023/04/24 08:34:31;;;;;;;1.83;0.50;;;10.00;99.90;;;;;;5050910;28;20049;-48
2023/04/24 08:36:58;;;;;;;0.95;0.60;;;10.00;99.90;;;;;;5058110;28;20458;-49
2023/04/24 08:39:24;;;;;;;3.45;0.70;;;9.90;99.90;;;;;;5070143;28;20644;-49
2023/04/24 08:41:52;;;;;;;1.08;0.52;;;9.90;99.90;;;;;;5070165;28;20045;-49
2023/04/24 08:44:20;;;;;;;1.02;0.50;;;9.80;99.90;;;;;;5071562;28;20045;-50
2023/04/24 08:46:48;;;;;;;2.17;0.63;;;9.90;99.90;;;;;;5069679;28;20516;-49
2023/04/24 08:49:18;;;;;;;1.52;0.70;;;9.90;99.90;;;;;;5073387;28;20068;-49
2023/04/24 08:51:47;;;;;;;2.15;0.68;;;9.90;99.90;;;;;;5073774;28;20075;-48
2023/04/24 08:54:14;;;;;;;2.95;1.25;;;9.90;99.90;;;;;;5069086;28;20071;-48
2023/04/24 08:56:44;;;;;;;2.05;1.00;;;10.00;99.90;;;;;;5073762;28;20040;-48
2023/04/24 08:59:11;;;;;;;3.42;1.35;;;10.00;99.90;;;;;;5071492;28;20044;-47
2023/04/24 09:01:40;;;;;;;1.35;0.60;;;10.10;99.90;;;;;;5073624;28;20519;-48
2023/04/24 09:04:13;;;;;;;1.73;0.90;;;10.20;99.90;;;;;;5054127;28;20041;-49
2023/04/24 09:06:40;;;;;;;0.88;0.60;;;10.30;99.90;;;;;;5053825;28;20048;-48
2023/04/24 09:09:08;;;;;;;0.63;0.40;;;10.40;99.90;;;;;;5052541;28;20048;-50
2023/04/24 09:11:34;;;;;;;4.03;0.85;;;10.40;99.90;;;;;;5053499;28;20045;-48
2023/04/24 09:14:01;;;;;;;0.73;0.50;;;10.40;99.90;;;;;;5053559;28;20545;-48
2023/04/24 09:16:29;;;;;;;0.82;0.50;;;10.30;99.90;;;;;;5073511;28;20044;-47
2023/04/24 09:18:56;;;;;;;1.27;0.60;;;10.20;99.90;;;;;;5055199;28;20048;-49
2023/04/24 09:21:23;;;;;;;3.03;0.52;;;10.40;99.90;;;;;;5053506;28;20098;-48
2023/04/24 09:24:02;;;;;;;1.25;0.73;;;10.40;99.90;;;;;;5052637;28;20412;-48
2023/04/24 09:26:33;;;;;;;1.70;0.90;;;10.50;99.90;;;;;;5060217;28;20033;-48
2023/04/24 09:29:00;;;;;;;1.45;0.45;;;10.50;99.90;;;;;;5069491;28;20386;-48
2023/04/24 09:31:29;;;;;;;2.65;0.65;;;10.50;99.90;;;;;;5063265;28;20450;-48
2023/04/24 09:34:03;;;;;;;3.38;1.00;;;10.50;99.90;;;;;;5072678;28;20047;-48
2023/04/24 09:36:37;;;;;;;1.50;1.25;;;10.20;99.90;;;;;;5071715;28;20525;-49
2023/04/24 09:39:08;;;;;;;2.47;1.67;;;9.90;99.90;;;;;;5070560;28;20048;-48
2023/04/24 09:41:35;;;;;;;1.73;1.63;;;9.90;99.90;;;;;;5066627;28;20125;-48
2023/04/24 09:44:34;;;;;;;2.60;1.30;;;9.90;99.90;;;;;;5063409;28;20052;-49
2023/04/24 09:47:00;;;;;;;4.68;2.28;;;10.00;99.90;;;;;;5064272;28;20052;-48
2023/04/24 09:49:30;;;;;;;2.00;1.45;;;10.20;99.90;;;;;;5071795;28;20471;-47
2023/04/24 09:52:24;;;;;;;1.40;1.30;;;10.30;99.90;;;;;;5070816;28;20090;-48
2023/04/24 09:54:54;;;;;;;3.78;1.00;;;10.40;99.90;;;;;;5064465;28;20053;-48
2023/04/24 09:57:24;;;;;;;2.50;1.60;;;10.70;99.90;;;;;;5046947;28;20486;-48
2023/04/24 09:59:53;;;;;;;1.65;1.50;;;11.00;99.90;;;;;;5033098;28;20045;-48
2023/04/24 10:02:20;;;;;;;6.25;1.63;;;11.30;99.90;;;;;;5050127;28;20067;-48
2023/04/24 10:04:58;;;;;;;5.20;1.80;;;11.70;99.90;;;;;;5065200;28;20033;-48
2023/04/24 10:07:26;;;;;;;2.90;2.17;;;11.90;99.90;;;;;;5059956;28;20064;-48
2023/04/24 10:10:26;;;;;;;8.07;3.30;;;11.70;99.90;;;;;;5120298;22;20070;-53
2023/04/24 10:12:53;;;;;;;8.48;2.78;;;11.70;99.90;;;;;;5033395;28;20056;-49
2023/04/24 10:15:21;;;;;;;4.70;2.33;;;11.80;99.90;;;;;;5071910;28;20255;-49
2023/04/24 10:17:52;;;;;;;4.05;1.90;;;11.80;99.90;;;;;;5104602;28;20031;-48
2023/04/24 10:20:24;;;;;;;2.53;1.33;;;11.90;99.90;;;;;;5071379;28;20449;-49
2023/04/24 10:22:53;;;;;;;2.03;1.63;;;12.00;99.90;;;;;;5072392;28;20098;-49
2023/04/24 10:25:25;;;;;;;4.07;1.25;;;12.00;99.90;;;;;;5079019;28;20700;-48
2023/04/24 10:27:53;;;;;;;1.70;1.02;;;12.20;99.90;;;;;;5101678;28;20492;-48
2023/04/24 10:30:20;;;;;;;1.67;1.10;;;12.10;99.90;;;;;;5107221;28;20039;-49
2023/04/24 10:32:46;;;;;;;4.25;1.50;;;12.10;99.90;;;;;;5091165;28;20072;-48
2023/04/24 10:35:15;;;;;;;4.40;1.90;;;12.20;99.90;;;;;;5092414;28;20484;-50
2023/04/24 10:37:46;;;;;;;3.38;1.65;;;12.20;99.90;;;;;;5086671;28;20090;-49
2023/04/24 10:40:18;;;;;;;4.15;1.88;;;12.20;99.90;;;;;;5091759;28;20105;-50
2023/04/24 10:42:51;;;;;;;4.03;1.70;;;12.40;99.90;;;;;;5097918;28;20040;-49
2023/04/24 10:45:21;;;;;;;3.35;1.88;;;12.60;99.90;;;;;;5095791;28;20139;-49
2023/04/24 10:48:10;;;;;;;17.25;6.45;;;12.70;99.90;;;;;;5111782;28;20100;-49
2023/04/24 10:50:47;;;;;;;4.82;2.30;;;13.10;99.90;;;;;;5112293;28;20483;-49
2023/04/24 10:53:26;;;;;;;3.78;2.00;;;13.20;99.90;;;;;;5092579;28;20062;-49
2023/04/24 10:56:07;;;;;;;9.05;4.28;;;13.50;99.90;;;;;;5091760;28;20416;-50
2023/04/24 10:58:39;;;;;;;3.17;1.55;;;13.60;99.90;;;;;;5103673;28;20104;-49
2023/04/24 11:01:07;;;;;;;4.38;1.80;;;13.70;99.90;;;;;;5111912;28;20051;-49
2023/04/24 11:03:35;;;;;;;4.03;1.73;;;13.90;99.90;;;;;;5094218;28;20043;-49
2023/04/24 11:06:04;;;;;;;1.45;1.20;;;14.10;99.90;;;;;;5101829;28;20105;-49
2023/04/24 11:08:37;;;;;;;6.45;1.60;;;14.20;99.90;;;;;;5089870;28;20040;-48
2023/04/24 11:11:13;;;;;;;3.72;1.17;;;14.30;99.90;;;;;;5090845;28;20400;-48
2023/04/24 11:13:55;;;;;;;2.72;1.15;;;14.50;99.90;;;;;;5106725;28;20508;-49
2023/04/24 11:16:41;;;;;;;2.08;1.08;;;14.50;99.90;;;;;;5070909;28;20048;-49
2023/04/24 11:19:16;;;;;;;2.25;0.93;;;14.60;99.90;;;;;;5072883;28;20075;-49
2023/04/24 11:21:49;;;;;;;2.58;1.10;;;14.50;99.90;;;;;;5091464;28;20047;-49
2023/04/24 11:24:26;;;;;;;1.35;1.00;;;14.70;99.90;;;;;;5091335;28;20101;-48
2023/04/24 11:26:59;;;;;;;2.08;0.90;;;14.60;99.90;;;;;;5098776;28;20028;-48
2023/04/24 11:29:44;;;;;;;1.55;0.95;;;14.40;99.90;;;;;;5097867;28;20127;-48
2023/04/24 11:32:50;;;;;;;1.17;0.60;;;14.20;99.90;;;;;;5091374;28;20052;-48
2023/04/24 11:35:24;;;;;;;2.30;1.20;;;14.00;99.90;;;;;;4989401;28;20129;-50
2023/04/24 11:37:54;;;;;;;1.15;0.85;;;14.00;99.90;;;;;;5004233;28;20053;-49
2023/04/24 11:40:38;;;;;;;2.70;0.90;;;14.10;99.90;;;;;;5077647;28;20055;-48
2023/04/24 11:43:06;;;;;;;;;;;14.20;99.90;;;;;;5110787;28;20474;-49
2023/04/24 11:45:34;;;;;;;1.75;0.73;;;14.30;99.90;;;;;;5101893;28;20014;-51
2023/04/24 11:48:02;;;;;;;;;;;14.50;99.90;;;;;;5077318;28;20466;-49
2023/04/24 11:50:30;;;;;;;1.77;0.80;;;14.60;99.90;;;;;;5097041;28;20219;-48
2023/04/24 11:52:57;;;;;;;2.05;0.80;;;14.60;99.90;;;;;;5090186;28;20496;-48
2023/04/24 11:55:28;;;;;;;8.93;0.93;;;14.50;99.90;;;;;;5085270;28;20032;-48
2023/04/24 11:57:58;;;;;;;2.38;0.82;;;14.60;99.90;;;;;;5091137;28;20040;-48
2023/04/24 12:00:30;;;;;;;2.97;0.70;;;14.60;99.90;;;;;;5072259;28;20151;-49
2023/04/24 12:03:09;;;;;;;2.55;0.70;;;14.40;99.90;;;;;;5090344;28;20114;-48
2023/04/24 12:05:36;;;;;;;5.55;0.82;;;14.30;99.90;;;;;;5095785;28;20114;-48
2023/04/24 12:08:04;;;;;;;1.23;0.60;;;14.00;99.90;;;;;;5100968;28;20504;-48
2023/04/24 12:10:33;;;;;;;0.63;0.52;;;13.80;99.90;;;;;;5090408;28;20066;-49
2023/04/24 12:13:00;;;;;;;2.40;0.95;;;13.70;99.90;;;;;;5089799;28;20481;-48
2023/04/24 12:15:27;;;;;;;2.45;0.60;;;13.60;99.90;;;;;;5104248;28;20039;-49
2023/04/24 12:17:56;;;;;;;3.28;0.73;;;13.60;99.90;;;;;;5093747;28;20456;-48
2023/04/24 12:20:28;;;;;;;1.70;0.70;;;13.60;99.90;;;;;;5093559;28;20459;-50
2023/04/24 12:22:57;;;;;;;1.25;0.70;;;13.60;99.90;;;;;;5101787;28;20065;-48
2023/04/24 12:25:29;;;;;;;1.35;0.85;;;13.60;99.90;;;;;;5114788;28;20068;-48
2023/04/24 12:28:16;;;;;;;2.33;0.82;;;13.50;99.90;;;;;;5103863;28;20040;-48
2023/04/24 12:30:48;;;;;;;0.88;0.82;;;13.60;99.90;;;;;;5107822;28;20036;-48
2023/04/24 12:33:21;;;;;;;2.15;0.85;;;13.70;99.90;;;;;;5093667;28;20489;-49
2023/04/24 12:35:51;;;;;;;1.38;0.65;;;13.90;99.90;;;;;;5093819;28;20097;-49
2023/04/24 12:38:23;;;;;;;3.00;0.60;;;13.90;99.90;;;;;;5097665;28;20441;-48
2023/04/24 12:41:08;;;;;;;0.40;0.40;;;14.00;99.90;;;;;;5114484;28;20122;-49
2023/04/24 12:43:35;;;;;;;2.03;0.60;;;14.10;99.90;;;;;;5114956;28;20036;-48
2023/04/24 12:46:03;;;;;;;0.60;0.40;;;14.30;99.90;;;;;;5111108;28;20053;-48
2023/04/24 12:48:30;;;;;;;;;;;14.30;99.90;;;;;;5114381;28;20047;-48
2023/04/24 12:51:01;;;;;;;1.13;0.50;;;14.40;99.90;;;;;;5114421;28;20355;-48
2023/04/24 12:53:31;;;;;;;0.60;0.40;;;14.60;99.90;;;;;;5101608;28;20040;-48
2023/04/24 12:55:58;;;;;;;0.90;0.60;;;14.50;99.90;;;;;;5094161;28;20097;-48
2023/04/24 12:58:25;;;;;;;2.42;0.90;;;14.60;99.90;;;;;;5093911;28;20063;-50
2023/04/24 13:00:51;;;;;;;1.58;0.70;;;14.60;99.90;;;;;;5109002;28;20507;-48
2023/04/24 13:03:19;;;;;;;3.13;1.58;;;14.70;99.90;;;;;;5114472;28;20410;-48
2023/04/24 13:05:46;;;;;;;4.32;1.10;;;14.70;99.90;;;;;;5096234;28;20533;-48
2023/04/24 13:08:13;;;;;;;1.08;0.55;;;14.70;99.90;;;;;;5104476;28;20126;-50